Continental, Arizona
Current Conditions -  °F | °C
As of 6:53 AM on Thursday 30 Oct 2014 (Local Time) from KTUS Reporting Station
Clear Clear  
Wind Chill: 60°   Ceiling: Unl
Heat Index: 60°   Visibility: 10mi
Dew Point: 40°   Wind: 8mph
Humidity: 47%   Direction: 110°ESE
Pressure: 30.1"   Gusts: NA
Location:  31.9776°N, 110.921°W
Report Text: KTUS 301353Z AUTO 11007KT 10SM CLR 16/04 A3010 RMK AO2 SLP158 T01560044
Loading
Personal Weather Stations






























Interactive Weather Map
Tropical Storm Tracking
New forecast layout! Learn more

10-Day Weather Forecast

Advertisements
Track Severe Weather on mobile